Time;durP1;ratioP1;P1;durP2;ratioP2;P2;SDS_P1;SDS_P2;PMS_P1;PMS_P2;Temp;Humidity;BMP_temperature;BMP_pressure;BME280_temperature;BME280_humidity;BME280_pressure;Samples;Min_cycle;Max_cycle;Signal;HPM_P1;HPM_P2
2022/01/03 00:00:22;;;;;;;6.07;2.00;;;11.90;97.30;;;;;;6124723;23;20033;-78
2022/01/03 00:02:49;;;;;;;5.22;1.92;;;11.90;97.20;;;;;;6124219;23;20367;-79
2022/01/03 00:05:15;;;;;;;5.45;1.98;;;11.90;97.20;;;;;;6124454;23;20012;-79
2022/01/03 00:07:43;;;;;;;6.93;1.80;;;11.90;97.10;;;;;;6126103;23;20033;-78
2022/01/03 00:10:10;;;;;;;7.03;1.80;;;11.90;97.10;;;;;;6125887;23;20460;-78
2022/01/03 00:12:37;;;;;;;4.78;1.75;;;11.90;97.00;;;;;;6124580;23;20006;-78
2022/01/03 00:15:05;;;;;;;5.53;1.90;;;11.90;97.00;;;;;;6124305;23;20010;-79
2022/01/03 00:17:31;;;;;;;7.22;1.83;;;11.90;96.90;;;;;;6124289;23;20013;-79
2022/01/03 00:19:57;;;;;;;5.90;2.17;;;11.90;96.90;;;;;;6126250;23;20444;-80
2022/01/03 00:22:24;;;;;;;5.75;1.77;;;11.90;96.80;;;;;;6126231;23;20326;-77
2022/01/03 00:25:01;;;;;;;6.60;1.63;;;11.90;96.80;;;;;;6125583;23;20089;-79
2022/01/03 00:27:34;;;;;;;3.17;1.52;;;11.90;96.80;;;;;;6124372;23;20010;-78
2022/01/03 00:30:00;;;;;;;4.80;1.50;;;11.90;96.80;;;;;;6125984;23;20005;-78
2022/01/03 00:32:28;;;;;;;5.55;1.45;;;12.00;96.70;;;;;;6126041;23;20381;-78
2022/01/03 00:34:55;;;;;;;6.90;1.80;;;11.90;96.70;;;;;;6123531;23;20010;-77
2022/01/03 00:37:23;;;;;;;8.57;1.83;;;12.00;96.70;;;;;;6124130;23;20507;-79
2022/01/03 00:39:50;;;;;;;8.50;2.00;;;11.90;96.60;;;;;;6126054;23;20006;-77
2022/01/03 00:42:16;;;;;;;6.88;1.80;;;11.90;96.60;;;;;;6124194;23;20006;-77
2022/01/03 00:44:42;;;;;;;5.72;1.48;;;11.90;96.60;;;;;;6124296;23;20009;-78
2022/01/03 00:47:10;;;;;;;6.68;1.50;;;11.90;96.60;;;;;;6125625;23;20038;-78
2022/01/03 00:49:39;;;;;;;7.88;1.50;;;11.90;96.60;;;;;;6124321;23;20006;-79
2022/01/03 00:52:04;;;;;;;6.68;1.60;;;11.90;96.60;;;;;;6124143;23;20438;-79
2022/01/03 00:54:30;;;;;;;7.40;1.70;;;11.90;96.60;;;;;;6126110;23;20056;-79
2022/01/03 00:57:07;;;;;;;7.90;1.50;;;11.90;96.60;;;;;;6126930;23;20054;-79
2022/01/03 00:59:42;;;;;;;6.53;1.50;;;11.80;96.60;;;;;;6125251;23;20010;-77
2022/01/03 01:02:11;;;;;;;8.63;2.00;;;11.80;96.60;;;;;;6123999;23;20010;-77
2022/01/03 01:04:38;;;;;;;8.88;1.58;;;11.80;96.60;;;;;;6125776;23;19998;-77
2022/01/03 01:07:06;;;;;;;6.38;1.48;;;11.80;96.60;;;;;;6123864;23;20027;-80
2022/01/03 01:09:34;;;;;;;8.05;1.60;;;11.80;96.60;;;;;;6124083;23;20009;-79
2022/01/03 01:12:00;;;;;;;7.78;1.50;;;11.80;96.50;;;;;;6125793;23;20006;-78
2022/01/03 01:14:27;;;;;;;6.30;1.90;;;11.80;96.50;;;;;;6125784;23;20006;-79
2022/01/03 01:16:53;;;;;;;8.43;2.05;;;11.80;96.50;;;;;;6123488;23;20034;-79
2022/01/03 01:19:20;;;;;;;8.93;1.80;;;11.80;96.50;;;;;;6123940;23;20453;-80
2022/01/03 01:21:49;;;;;;;7.57;1.65;;;11.80;96.50;;;;;;6124107;23;20050;-77
2022/01/03 01:24:16;;;;;;;8.82;1.75;;;11.80;96.50;;;;;;6123981;23;20002;-79
2022/01/03 01:29:27;;;;;;;9.30;2.03;;;11.80;96.40;;;;;;6125934;23;20528;-79
2022/01/03 01:31:54;;;;;;;6.85;1.85;;;11.80;96.40;;;;;;6125454;23;20010;-78
2022/01/03 01:34:26;;;;;;;7.97;1.88;;;11.80;96.40;;;;;;6124248;23;20017;-78
2022/01/03 01:36:54;;;;;;;8.75;1.75;;;11.80;96.30;;;;;;6125390;23;19998;-78
2022/01/03 01:39:25;;;;;;;7.95;1.70;;;11.80;96.30;;;;;;6124216;23;20006;-79
2022/01/03 01:41:53;;;;;;;;;;;11.80;96.30;;;;;;6125808;23;20329;-79
2022/01/03 01:44:21;;;;;;;8.43;2.08;;;11.80;96.30;;;;;;6148709;23;19901;-78
2022/01/03 01:46:53;;;;;;;10.07;1.90;;;11.80;96.30;;;;;;6123541;23;20438;-78
2022/01/03 01:49:21;;;;;;;10.15;1.95;;;11.80;96.20;;;;;;6125224;23;20085;-78
2022/01/03 01:51:53;;;;;;;7.85;2.00;;;11.80;96.30;;;;;;6125923;23;20006;-78
2022/01/03 01:54:19;;;;;;;8.13;1.55;;;11.80;96.20;;;;;;6125773;23;20010;-78
2022/01/03 01:57:05;;;;;;;7.10;1.63;;;11.80;96.10;;;;;;6125942;23;20488;-79
2022/01/03 01:59:40;;;;;;;11.07;2.40;;;11.80;96.10;;;;;;6125916;23;20003;-79
2022/01/03 02:02:11;;;;;;;10.40;1.80;;;11.80;96.20;;;;;;6123053;23;20037;-78
2022/01/03 02:04:46;;;;;;;8.32;1.70;;;11.80;96.10;;;;;;6125722;23;20006;-82
2022/01/03 02:07:23;;;;;;;7.05;1.75;;;11.80;96.10;;;;;;6125271;23;20436;-79
2022/01/03 02:10:16;;;;;;;7.78;1.77;;;11.80;96.10;;;;;;6125145;23;20009;-79
2022/01/03 02:12:46;;;;;;;9.07;1.63;;;11.80;96.20;;;;;;6121464;23;20033;-79
2022/01/03 02:15:14;;;;;;;10.30;1.92;;;11.80;96.10;;;;;;6124835;23;20009;-78
2022/01/03 02:17:44;;;;;;;10.57;2.63;;;11.80;96.10;;;;;;6125215;23;20088;-78
2022/01/03 02:20:15;;;;;;;8.63;1.75;;;11.80;96.00;;;;;;6126927;23;20006;-80
2022/01/03 02:22:42;;;;;;;7.85;1.65;;;11.80;96.10;;;;;;6124907;23;20017;-79
2022/01/03 02:25:10;;;;;;;7.18;1.83;;;11.80;96.00;;;;;;6126202;23;20029;-79
2022/01/03 02:27:37;;;;;;;7.00;1.63;;;11.80;96.10;;;;;;6126886;23;19998;-78
2022/01/03 02:30:05;;;;;;;9.52;1.90;;;11.90;96.10;;;;;;6125190;23;20006;-79
2022/01/03 02:32:31;;;;;;;6.60;1.70;;;11.80;96.00;;;;;;6125374;23;20002;-79
2022/01/03 02:34:56;;;;;;;8.68;1.75;;;11.80;96.00;;;;;;6125370;23;20010;-79
2022/01/03 02:37:23;;;;;;;7.88;2.00;;;11.80;96.00;;;;;;6126644;23;20006;-78
2022/01/03 02:39:50;;;;;;;9.52;2.22;;;11.80;96.00;;;;;;6125068;23;20013;-78
2022/01/03 02:42:19;;;;;;;9.60;2.17;;;11.80;95.90;;;;;;6126638;23;20414;-78
2022/01/03 02:44:44;;;;;;;8.13;1.75;;;11.80;95.90;;;;;;6126353;23;20005;-79
2022/01/03 02:47:10;;;;;;;9.48;1.67;;;11.80;96.00;;;;;;6124556;23;20006;-78
2022/01/03 02:49:35;;;;;;;10.50;2.47;;;11.80;96.00;;;;;;6125100;23;20311;-79
2022/01/03 02:52:01;;;;;;;7.07;1.65;;;11.80;96.00;;;;;;6125083;23;20337;-79
2022/01/03 02:54:26;;;;;;;8.20;1.70;;;11.80;96.00;;;;;;6124856;23;20010;-78
2022/01/03 02:56:52;;;;;;;8.88;1.70;;;11.80;95.90;;;;;;6124700;23;20006;-78
2022/01/03 02:59:19;;;;;;;9.07;1.60;;;11.80;96.00;;;;;;6124996;23;20080;-77
2022/01/03 03:01:46;;;;;;;10.60;2.15;;;11.80;95.90;;;;;;6124431;23;20010;-78
2022/01/03 03:04:13;;;;;;;8.05;2.03;;;11.80;96.00;;;;;;6124902;23;20009;-79
2022/01/03 03:06:39;;;;;;;6.50;1.70;;;11.80;96.10;;;;;;6124755;23;20002;-77
2022/01/03 03:09:07;;;;;;;7.15;1.65;;;11.80;96.00;;;;;;6126137;23;20002;-78
2022/01/03 03:11:34;;;;;;;9.60;1.67;;;11.80;96.00;;;;;;6124914;23;20005;-78
2022/01/03 03:14:00;;;;;;;7.63;1.58;;;11.80;96.10;;;;;;6124948;23;20093;-77
2022/01/03 03:16:25;;;;;;;7.50;1.80;;;11.80;96.00;;;;;;6124267;23;20327;-78
2022/01/03 03:18:51;;;;;;;8.27;2.35;;;11.80;96.10;;;;;;6124742;23;20100;-79
2022/01/03 03:21:17;;;;;;;8.43;1.77;;;11.80;96.10;;;;;;6124486;23;20013;-79
2022/01/03 03:23:43;;;;;;;9.55;1.90;;;11.80;96.10;;;;;;6126090;23;20077;-78
2022/01/03 03:26:10;;;;;;;6.75;1.38;;;11.80;96.00;;;;;;6124422;23;20064;-78
2022/01/03 03:28:35;;;;;;;8.93;1.92;;;11.80;96.00;;;;;;6126263;23;20005;-78
2022/01/03 03:31:01;;;;;;;7.32;1.63;;;11.80;96.00;;;;;;6124375;23;20006;-79
2022/01/03 03:33:29;;;;;;;7.15;1.60;;;11.80;96.10;;;;;;6126200;23;20038;-79
2022/01/03 03:35:55;;;;;;;7.68;1.90;;;11.80;96.00;;;;;;6124337;23;20114;-79
2022/01/03 03:38:25;;;;;;;9.57;1.50;;;11.80;96.10;;;;;;6124368;23;20006;-77
2022/01/03 03:40:51;;;;;;;7.72;1.92;;;11.80;96.00;;;;;;6124498;23;20013;-78
2022/01/03 03:43:17;;;;;;;8.90;1.55;;;11.80;96.10;;;;;;6124308;23;20065;-78
2022/01/03 03:45:43;;;;;;;9.10;1.65;;;11.80;96.00;;;;;;6125270;23;20370;-78
2022/01/03 03:48:10;;;;;;;7.07;1.88;;;11.80;96.00;;;;;;6124572;23;20349;-79
2022/01/03 03:50:35;;;;;;;11.40;2.10;;;11.80;96.00;;;;;;6124834;23;20028;-78
2022/01/03 03:53:01;;;;;;;8.00;1.85;;;11.80;95.90;;;;;;6125838;23;20492;-79
2022/01/03 03:55:27;;;;;;;7.45;1.85;;;11.80;95.70;;;;;;6124027;23;20009;-79
2022/01/03 03:57:53;;;;;;;8.55;1.95;;;11.80;95.60;;;;;;6124492;23;20012;-78
2022/01/03 04:00:19;;;;;;;6.35;1.63;;;11.90;95.70;;;;;;6121562;23;19998;-78
2022/01/03 04:02:45;;;;;;;8.63;1.70;;;11.90;95.70;;;;;;6125796;23;20056;-80
2022/01/03 04:05:11;;;;;;;6.65;1.45;;;11.90;95.60;;;;;;6124095;23;20032;-80
2022/01/03 04:07:37;;;;;;;9.85;2.38;;;11.90;95.60;;;;;;6125627;23;20377;-80
2022/01/03 04:10:08;;;;;;;8.57;2.10;;;11.90;95.50;;;;;;6124276;23;19998;-79
2022/01/03 04:12:33;;;;;;;9.82;1.90;;;11.90;95.50;;;;;;6125579;23;20393;-79
2022/01/03 04:14:59;;;;;;;8.52;1.70;;;11.90;95.40;;;;;;6123793;23;20037;-78
2022/01/03 04:17:24;;;;;;;7.00;1.73;;;11.90;95.40;;;;;;6125949;23;20002;-79
2022/01/03 04:19:50;;;;;;;7.35;2.13;;;11.90;95.30;;;;;;6124149;23;20016;-79
2022/01/03 04:22:15;;;;;;;8.65;1.92;;;11.90;95.30;;;;;;6125599;23;20096;-79
2022/01/03 04:24:41;;;;;;;11.52;2.78;;;11.90;95.30;;;;;;6124148;23;20089;-79
2022/01/03 04:27:06;;;;;;;9.25;2.05;;;11.90;95.30;;;;;;6123792;23;20002;-79
2022/01/03 04:29:32;;;;;;;10.65;2.60;;;11.90;95.20;;;;;;6125399;23;20069;-78
2022/01/03 04:31:58;;;;;;;9.00;2.05;;;11.90;95.20;;;;;;6124112;23;20459;-78
2022/01/03 04:34:23;;;;;;;11.43;2.30;;;11.90;95.20;;;;;;6125782;23;20033;-78
2022/01/03 04:36:49;;;;;;;10.02;2.30;;;11.90;95.20;;;;;;6123534;23;20086;-79
2022/01/03 04:39:15;;;;;;;10.02;2.10;;;11.90;95.10;;;;;;6124154;23;20012;-79
2022/01/03 04:41:40;;;;;;;9.93;2.33;;;11.90;95.10;;;;;;6123712;23;20010;-79
2022/01/03 04:44:06;;;;;;;10.20;2.35;;;11.90;95.00;;;;;;6125146;23;20005;-79
2022/01/03 04:46:33;;;;;;;12.27;2.72;;;11.90;94.90;;;;;;6123841;23;20006;-78
2022/01/03 04:48:59;;;;;;;11.40;2.55;;;11.90;95.00;;;;;;6125571;23;20033;-79
2022/01/03 04:51:25;;;;;;;9.43;2.47;;;11.80;95.00;;;;;;6123748;23;20002;-77
2022/01/03 04:53:50;;;;;;;9.60;2.20;;;11.80;95.00;;;;;;6124133;23;20089;-79
2022/01/03 04:56:16;;;;;;;9.65;2.33;;;11.80;94.90;;;;;;6125155;23;20338;-78
2022/01/03 04:58:42;;;;;;;11.82;3.10;;;11.80;95.00;;;;;;6123709;23;20002;-78
2022/01/03 05:01:08;;;;;;;11.55;2.45;;;11.80;95.10;;;;;;6123666;23;20458;-79
2022/01/03 05:03:33;;;;;;;10.93;3.20;;;11.80;95.10;;;;;;6123783;23;20038;-78
2022/01/03 05:06:01;;;;;;;10.50;2.85;;;11.80;95.10;;;;;;6124688;23;20045;-79
2022/01/03 05:08:31;;;;;;;9.80;2.30;;;11.80;95.20;;;;;;6123957;23;20010;-78
2022/01/03 05:11:00;;;;;;;11.10;3.00;;;11.80;95.10;;;;;;6124038;23;20028;-77
2022/01/03 05:13:26;;;;;;;10.57;2.80;;;11.80;95.20;;;;;;6123137;23;20006;-78
2022/01/03 05:15:51;;;;;;;12.25;2.95;;;11.80;95.10;;;;;;6123899;23;20409;-79
2022/01/03 05:18:17;;;;;;;13.65;2.85;;;11.80;95.20;;;;;;6123822;23;20017;-79
2022/01/03 05:20:42;;;;;;;11.68;2.70;;;11.80;95.10;;;;;;6123625;23;20005;-79
2022/01/03 05:23:08;;;;;;;8.85;2.60;;;11.80;95.20;;;;;;6125710;23;20009;-79
2022/01/03 05:25:34;;;;;;;9.65;2.58;;;11.80;95.20;;;;;;6125532;23;20006;-78
2022/01/03 05:27:59;;;;;;;11.18;2.63;;;11.80;95.10;;;;;;6125418;23;20006;-79
2022/01/03 05:30:25;;;;;;;9.52;2.35;;;11.80;95.10;;;;;;6125824;23;20026;-79
2022/01/03 05:32:51;;;;;;;13.77;3.20;;;11.80;95.10;;;;;;6125669;23;20006;-78
2022/01/03 05:35:16;;;;;;;12.73;2.85;;;11.80;95.10;;;;;;6125092;23;20013;-77
2022/01/03 05:37:42;;;;;;;12.68;3.53;;;11.80;95.10;;;;;;6125861;23;20088;-78
2022/01/03 05:40:08;;;;;;;11.40;2.78;;;11.80;95.10;;;;;;6127314;23;20010;-80
2022/01/03 05:42:33;;;;;;;12.27;3.03;;;11.80;95.10;;;;;;6129194;23;20011;-81
2022/01/03 05:44:59;;;;;;;13.45;3.25;;;11.80;95.10;;;;;;6126905;23;20034;-80
2022/01/03 05:47:25;;;;;;;11.45;3.08;;;11.80;95.10;;;;;;6128092;23;19998;-80
2022/01/03 05:49:52;;;;;;;11.77;3.00;;;11.80;95.00;;;;;;6127133;23;20090;-81
2022/01/03 05:52:18;;;;;;;12.25;3.15;;;11.80;95.10;;;;;;6127063;23;20006;-79
2022/01/03 05:54:44;;;;;;;12.50;3.13;;;11.80;95.00;;;;;;6128576;23;20016;-80
2022/01/03 05:57:09;;;;;;;10.93;3.00;;;11.80;95.10;;;;;;6127185;23;20006;-80
2022/01/03 05:59:35;;;;;;;12.40;3.50;;;11.80;95.10;;;;;;6127110;23;20006;-80
2022/01/03 06:02:00;;;;;;;13.60;3.13;;;11.80;95.00;;;;;;6126066;23;20041;-80
2022/01/03 06:04:39;;;;;;;9.70;3.30;;;11.80;95.00;;;;;;6128424;23;20022;-82
2022/01/03 06:07:08;;;;;;;11.85;2.92;;;11.80;94.90;;;;;;6126267;23;20384;-81
2022/01/03 06:09:33;;;;;;;15.65;3.60;;;11.70;94.90;;;;;;6128258;23;19998;-81
2022/01/03 06:11:59;;;;;;;15.60;3.72;;;11.80;95.10;;;;;;6128277;23;20020;-79
2022/01/03 06:14:25;;;;;;;11.93;3.30;;;11.80;94.90;;;;;;6125829;23;20002;-80
2022/01/03 06:16:51;;;;;;;13.23;3.20;;;11.80;94.90;;;;;;6128203;23;20009;-80
2022/01/03 06:19:17;;;;;;;11.95;3.42;;;11.80;94.90;;;;;;6126397;23;20009;-81
2022/01/03 06:21:43;;;;;;;12.00;3.13;;;11.80;94.90;;;;;;6126244;23;20048;-80
2022/01/03 06:24:10;;;;;;;10.38;3.20;;;11.80;94.90;;;;;;6126663;23;20389;-80
2022/01/03 06:26:37;;;;;;;12.68;3.83;;;11.80;94.80;;;;;;6127712;23;20422;-80
2022/01/03 06:29:04;;;;;;;10.80;2.97;;;11.80;95.00;;;;;;6127896;23;20430;-80
2022/01/03 06:31:31;;;;;;;10.93;3.30;;;11.80;94.90;;;;;;6128288;23;20006;-79
2022/01/03 06:33:56;;;;;;;11.23;3.38;;;11.80;94.90;;;;;;6126054;23;20012;-80
2022/01/03 06:36:22;;;;;;;11.82;3.75;;;11.80;94.90;;;;;;6127459;23;20002;-79
2022/01/03 06:38:47;;;;;;;11.30;3.30;;;11.80;94.90;;;;;;6126089;23;20090;-80
2022/01/03 06:41:13;;;;;;;10.07;3.10;;;11.80;94.90;;;;;;6126328;23;20006;-81
2022/01/03 06:43:38;;;;;;;11.98;3.67;;;11.80;95.00;;;;;;6126287;23;20057;-80
2022/01/03 06:46:04;;;;;;;12.38;3.60;;;11.80;94.90;;;;;;6126511;23;20106;-81
2022/01/03 06:48:29;;;;;;;10.90;3.15;;;11.80;94.80;;;;;;6126230;23;20080;-79
2022/01/03 06:50:55;;;;;;;11.80;3.78;;;11.80;94.80;;;;;;6127117;23;20006;-80
2022/01/03 06:53:20;;;;;;;13.00;3.85;;;11.80;94.80;;;;;;6126011;23;20101;-80
2022/01/03 06:55:46;;;;;;;10.52;3.33;;;11.80;94.80;;;;;;6127432;23;20501;-80
2022/01/03 06:58:12;;;;;;;12.80;3.63;;;11.80;94.90;;;;;;6126053;23;20013;-80
2022/01/03 07:00:38;;;;;;;11.70;4.00;;;11.80;94.90;;;;;;6127745;23;20434;-80
2022/01/03 07:03:03;;;;;;;11.13;3.35;;;11.80;94.90;;;;;;6125799;23;20010;-80
2022/01/03 07:05:29;;;;;;;11.93;3.80;;;11.80;94.80;;;;;;6125583;23;20717;-80
2022/01/03 07:07:54;;;;;;;13.32;3.70;;;11.80;94.80;;;;;;6125959;23;20456;-80
2022/01/03 07:10:20;;;;;;;11.82;3.65;;;11.80;94.80;;;;;;6124833;23;20010;-79
2022/01/03 07:12:50;;;;;;;10.80;3.47;;;11.80;94.90;;;;;;6125804;23;20016;-80
2022/01/03 07:20:47;;;;;;;10.77;3.15;;;11.80;94.80;;;;;;6124202;23;20021;-81
2022/01/03 07:23:13;;;;;;;12.63;3.15;;;11.80;94.90;;;;;;6124469;23;20088;-80
2022/01/03 07:25:39;;;;;;;10.98;3.40;;;11.80;94.70;;;;;;6124865;23;20010;-79
2022/01/03 07:28:06;;;;;;;10.30;3.30;;;11.80;94.90;;;;;;6123558;23;20002;-81
2022/01/03 07:30:31;;;;;;;13.40;3.95;;;11.80;94.80;;;;;;6123641;23;20005;-80
2022/01/03 07:32:57;;;;;;;12.85;3.22;;;11.80;94.90;;;;;;6125232;23;20033;-81
2022/01/03 07:35:23;;;;;;;13.38;3.30;;;11.80;94.80;;;;;;6122800;23;20013;-81
2022/01/03 07:37:49;;;;;;;12.05;3.17;;;11.80;95.00;;;;;;6123927;23;20489;-81
2022/01/03 07:40:14;;;;;;;13.48;3.17;;;11.80;94.90;;;;;;6124314;23;20006;-81
2022/01/03 07:42:42;;;;;;;11.63;2.97;;;11.80;94.90;;;;;;6124767;23;20527;-81
2022/01/03 07:45:08;;;;;;;11.35;3.25;;;11.80;94.90;;;;;;6125327;23;20749;-81
2022/01/03 07:47:34;;;;;;;10.10;3.53;;;11.80;94.90;;;;;;6123084;23;19998;-80
2022/01/03 07:49:59;;;;;;;13.85;2.92;;;11.80;94.70;;;;;;6124581;23;20363;-79
2022/01/03 07:52:25;;;;;;;9.95;2.80;;;11.80;94.90;;;;;;6122989;23;20033;-80
2022/01/03 07:54:52;;;;;;;10.57;3.00;;;11.80;95.00;;;;;;6122334;23;20596;-79
2022/01/03 07:57:18;;;;;;;8.30;2.67;;;11.80;95.00;;;;;;6124053;23;20010;-80
2022/01/03 07:59:45;;;;;;;13.23;3.25;;;11.80;94.90;;;;;;6124653;23;20074;-81
2022/01/03 08:02:11;;;;;;;8.45;2.85;;;11.80;94.70;;;;;;6124220;23;20010;-81
2022/01/03 08:04:37;;;;;;;10.07;2.92;;;11.80;94.60;;;;;;6124030;23;19998;-80
2022/01/03 08:07:03;;;;;;;9.05;2.90;;;11.80;94.70;;;;;;6122766;23;20006;-81
2022/01/03 08:09:29;;;;;;;9.20;2.67;;;11.80;94.60;;;;;;6122698;23;20006;-81
2022/01/03 08:11:54;;;;;;;11.38;2.78;;;11.80;94.50;;;;;;6122895;23;20013;-81
2022/01/03 08:14:20;;;;;;;11.88;3.28;;;11.90;94.50;;;;;;6124536;23;20334;-80
2022/01/03 08:16:46;;;;;;;14.18;3.78;;;11.90;94.50;;;;;;6122667;23;20088;-80
2022/01/03 08:19:11;;;;;;;12.43;3.47;;;11.90;94.40;;;;;;6122308;23;20611;-80
2022/01/03 08:21:37;;;;;;;11.23;2.72;;;11.90;94.40;;;;;;6122346;23;20334;-80
2022/01/03 08:24:03;;;;;;;11.07;2.80;;;11.90;94.30;;;;;;6123687;23;20009;-81
2022/01/03 08:26:29;;;;;;;11.68;3.03;;;11.90;94.30;;;;;;6123740;23;20013;-80
2022/01/03 08:28:54;;;;;;;10.32;3.20;;;11.90;94.10;;;;;;6131711;23;20009;-81
2022/01/03 08:31:22;;;;;;;14.13;3.10;;;11.90;94.20;;;;;;6125440;23;20024;-80
2022/01/03 08:33:47;;;;;;;11.70;2.78;;;11.90;94.10;;;;;;6125323;23;20006;-80
2022/01/03 08:36:13;;;;;;;11.95;3.33;;;11.90;93.90;;;;;;6123359;23;20033;-79
2022/01/03 08:38:39;;;;;;;12.68;2.92;;;12.00;94.00;;;;;;6119815;23;20072;-80
2022/01/03 08:41:05;;;;;;;12.32;2.80;;;12.00;94.00;;;;;;6121846;23;20006;-79
2022/01/03 08:43:31;;;;;;;10.88;3.00;;;12.00;94.00;;;;;;6122638;23;20013;-80
2022/01/03 08:45:56;;;;;;;10.48;3.08;;;12.00;93.70;;;;;;6122461;23;20009;-81
2022/01/03 08:48:22;;;;;;;11.77;2.72;;;11.90;93.80;;;;;;6124494;23;20012;-79
2022/01/03 08:50:47;;;;;;;12.02;3.10;;;11.90;93.70;;;;;;6123733;23;20371;-80
2022/01/03 08:53:13;;;;;;;13.93;3.00;;;11.90;93.80;;;;;;6123740;23;20056;-80
2022/01/03 08:55:40;;;;;;;13.57;2.90;;;11.90;93.80;;;;;;6124642;23;20353;-82
2022/01/03 08:58:06;;;;;;;11.52;3.00;;;11.90;93.90;;;;;;6125723;23;20006;-80
2022/01/03 09:00:31;;;;;;;11.90;2.92;;;11.90;93.80;;;;;;6124764;23;20006;-81
2022/01/03 09:02:57;;;;;;;11.55;2.85;;;12.00;93.80;;;;;;6123459;23;20017;-81
2022/01/03 09:05:22;;;;;;;11.25;2.83;;;12.00;93.60;;;;;;6122088;23;20002;-82
2022/01/03 09:07:48;;;;;;;10.52;3.25;;;12.00;93.70;;;;;;6121880;23;20006;-82
2022/01/03 09:10:14;;;;;;;12.13;2.85;;;12.00;93.70;;;;;;6121022;23;20002;-81
2022/01/03 09:12:40;;;;;;;10.75;2.88;;;11.90;93.70;;;;;;6122381;23;20041;-80
2022/01/03 09:15:06;;;;;;;10.63;2.88;;;11.90;93.70;;;;;;6122030;23;20457;-80
2022/01/03 09:17:31;;;;;;;14.27;3.22;;;11.90;93.80;;;;;;6119541;23;20021;-81
2022/01/03 09:19:57;;;;;;;11.23;3.40;;;11.90;93.80;;;;;;6121811;23;20041;-81
2022/01/03 09:22:29;;;;;;;10.45;2.80;;;11.90;93.80;;;;;;6121359;23;20006;-80
2022/01/03 09:30:12;;;;;;;12.98;3.25;;;11.90;93.70;;;;;;6121956;23;20034;-80
2022/01/03 09:32:38;;;;;;;11.90;3.00;;;12.00;93.70;;;;;;6121621;23;20067;-81
2022/01/03 09:35:05;;;;;;;12.77;3.58;;;12.00;93.60;;;;;;6120033;23;20010;-81
2022/01/03 09:37:35;;;;;;;14.55;3.08;;;12.00;93.70;;;;;;6119914;23;20014;-81
2022/01/03 09:40:03;;;;;;;9.52;2.72;;;12.00;93.70;;;;;;6119735;23;20064;-81
2022/01/03 09:42:30;;;;;;;13.75;3.35;;;12.00;93.60;;;;;;6119191;23;20027;-81
2022/01/03 09:44:58;;;;;;;12.82;3.10;;;12.00;93.70;;;;;;6120910;23;20010;-81
2022/01/03 09:47:29;;;;;;;10.98;3.05;;;12.00;93.60;;;;;;6119212;23;20002;-81
2022/01/03 09:49:57;;;;;;;13.98;2.80;;;11.90;93.60;;;;;;6120930;23;20049;-80
2022/01/03 09:52:23;;;;;;;13.35;3.90;;;11.90;93.70;;;;;;6119160;23;20442;-81
2022/01/03 09:54:50;;;;;;;12.73;3.25;;;11.90;93.70;;;;;;6119291;23;20014;-80
2022/01/03 09:57:19;;;;;;;11.02;2.50;;;11.90;93.70;;;;;;6119437;23;20060;-81
2022/01/03 09:59:45;;;;;;;10.07;3.03;;;11.90;93.70;;;;;;6121033;23;20010;-83
2022/01/03 10:02:13;;;;;;;10.07;2.53;;;11.90;93.70;;;;;;6120923;23;20034;-80
2022/01/03 10:04:39;;;;;;;11.80;2.88;;;11.90;93.70;;;;;;6119240;23;20010;-81
2022/01/03 10:07:09;;;;;;;13.00;3.58;;;11.90;93.70;;;;;;6119319;23;20468;-80
2022/01/03 10:09:37;;;;;;;12.55;3.05;;;11.90;93.80;;;;;;6121825;23;20002;-82
2022/01/03 10:12:03;;;;;;;10.55;3.13;;;11.90;93.80;;;;;;6123267;23;20042;-80
2022/01/03 10:14:28;;;;;;;13.57;3.40;;;11.90;93.80;;;;;;6122632;23;20013;-80
2022/01/03 10:16:54;;;;;;;14.05;3.00;;;11.90;93.70;;;;;;6119526;23;20010;-81
2022/01/03 10:19:19;;;;;;;12.88;2.88;;;11.90;93.80;;;;;;6124164;23;20010;-81
2022/01/03 10:21:48;;;;;;;11.85;3.45;;;12.00;93.70;;;;;;6123825;23;20888;-78
2022/01/03 10:24:17;;;;;;;9.25;2.80;;;12.00;93.70;;;;;;6126896;23;20546;-82
2022/01/03 10:26:50;;;;;;;13.05;3.03;;;12.00;93.90;;;;;;6129812;23;20009;-82
2022/01/03 10:29:16;;;;;;;15.68;3.13;;;12.00;93.70;;;;;;6130559;23;20005;-83
2022/01/03 10:31:43;;;;;;;12.10;3.08;;;12.00;93.90;;;;;;6129489;23;20025;-82
2022/01/03 10:34:11;;;;;;;10.05;2.78;;;12.00;94.00;;;;;;6129745;23;20021;-82
2022/01/03 10:36:38;;;;;;;9.45;2.70;;;12.00;93.90;;;;;;6127816;23;20005;-82
2022/01/03 10:39:23;;;;;;;10.38;2.70;;;11.90;93.80;;;;;;6129657;23;20032;-81
2022/01/03 10:41:51;;;;;;;11.30;2.65;;;12.00;94.00;;;;;;6128887;23;20085;-82
2022/01/03 10:44:36;;;;;;;8.23;2.80;;;12.00;93.90;;;;;;6127421;23;20013;-81
2022/01/03 10:47:04;;;;;;;9.40;2.47;;;12.00;93.80;;;;;;6126536;23;20014;-82
2022/01/03 10:49:30;;;;;;;10.95;2.83;;;12.00;93.80;;;;;;6128970;23;20005;-82
2022/01/03 10:52:22;;;;;;;10.13;2.88;;;12.00;93.80;;;;;;6129041;23;20010;-82
2022/01/03 10:55:07;;;;;;;9.85;3.30;;;12.00;93.70;;;;;;6126130;23;20046;-83
2022/01/03 10:57:52;;;;;;;11.65;2.80;;;12.00;93.90;;;;;;6126971;23;20010;-82
2022/01/03 11:00:41;;;;;;;9.05;2.90;;;12.00;93.90;;;;;;6126414;23;20013;-82
2022/01/03 11:03:37;;;;;;;10.65;3.00;;;12.00;94.00;;;;;;6128972;23;20009;-83
2022/01/03 11:06:20;;;;;;;11.43;2.72;;;11.90;93.90;;;;;;6128654;23;20001;-81
2022/01/03 11:11:39;;;;;;;8.85;2.70;;;11.90;94.00;;;;;;6128955;23;20012;-81
2022/01/03 11:14:06;;;;;;;9.00;2.42;;;12.00;94.00;;;;;;6126533;23;20009;-80
2022/01/03 11:16:34;;;;;;;9.63;2.67;;;12.00;93.80;;;;;;6127497;23;20009;-81
2022/01/03 11:19:00;;;;;;;10.80;2.88;;;12.00;93.70;;;;;;6126407;23;20034;-81
2022/01/03 11:21:28;;;;;;;9.55;2.50;;;12.00;93.70;;;;;;6127532;23;20058;-79
2022/01/03 11:24:11;;;;;;;16.10;3.08;;;12.00;93.80;;;;;;6127973;23;20033;-81
2022/01/03 11:26:46;;;;;;;11.13;2.65;;;12.00;93.80;;;;;;6125769;23;20068;-81
2022/01/03 11:29:12;;;;;;;10.68;3.05;;;12.00;93.90;;;;;;6127645;23;19994;-81
2022/01/03 11:31:40;;;;;;;11.98;2.38;;;12.00;93.90;;;;;;6125431;23;20009;-81
2022/01/03 11:34:07;;;;;;;8.48;2.33;;;12.00;94.00;;;;;;6127347;23;20006;-81
2022/01/03 11:36:35;;;;;;;15.05;3.03;;;12.00;93.90;;;;;;6127947;23;20002;-82
2022/01/03 11:39:07;;;;;;;9.30;2.80;;;12.00;94.00;;;;;;6129837;23;20337;-82
2022/01/03 11:41:33;;;;;;;9.55;2.33;;;11.90;93.90;;;;;;6130102;23;20002;-82
2022/01/03 11:44:01;;;;;;;10.70;2.70;;;11.90;93.90;;;;;;6128226;23;20013;-80
2022/01/03 11:46:28;;;;;;;10.27;2.75;;;11.90;93.90;;;;;;6127312;23;20006;-83
2022/01/03 11:48:54;;;;;;;9.90;2.55;;;11.90;93.90;;;;;;6127283;23;20009;-82
2022/01/03 11:51:20;;;;;;;11.50;3.55;;;11.90;94.00;;;;;;6126859;23;20002;-81
2022/01/03 11:53:48;;;;;;;9.75;2.95;;;11.90;94.00;;;;;;6126308;23;20009;-81
2022/01/03 11:56:22;;;;;;;9.90;2.60;;;11.90;93.80;;;;;;6125665;23;20010;-81
2022/01/03 12:04:13;;;;;;;9.15;2.75;;;12.00;93.10;;;;;;6128218;23;20042;-83
2022/01/03 12:06:39;;;;;;;10.65;2.65;;;12.00;93.00;;;;;;6129470;23;20028;-83
2022/01/03 12:09:08;;;;;;;10.27;3.25;;;12.00;93.00;;;;;;6129956;23;20330;-82
2022/01/03 12:11:46;;;;;;;10.20;2.88;;;12.00;92.90;;;;;;6128639;23;20005;-84
2022/01/03 12:14:14;;;;;;;9.98;3.15;;;12.00;92.80;;;;;;6130171;23;20492;-82
2022/01/03 12:16:52;;;;;;;10.80;2.83;;;12.00;92.80;;;;;;6127665;23;20081;-83
2022/01/03 12:19:24;;;;;;;9.13;2.97;;;12.00;92.90;;;;;;6130226;23;20016;-82
2022/01/03 12:21:55;;;;;;;11.02;2.80;;;12.00;92.70;;;;;;6127045;23;20005;-82
2022/01/03 12:24:27;;;;;;;13.93;3.20;;;12.00;92.70;;;;;;6126066;23;19998;-80
2022/01/03 12:27:33;;;;;;;11.43;3.28;;;12.00;92.70;;;;;;6124973;23;20008;-81
2022/01/03 12:30:01;;;;;;;10.57;3.15;;;12.10;92.70;;;;;;6041828;23;20015;-81
2022/01/03 12:32:45;;;;;;;13.63;3.03;;;12.10;92.70;;;;;;6065569;23;20007;-79
2022/01/03 12:35:16;;;;;;;10.80;3.20;;;12.10;92.60;;;;;;6091518;23;20032;-80
2022/01/03 12:37:42;;;;;;;11.32;3.20;;;12.10;92.60;;;;;;6127145;23;20002;-80
2022/01/03 12:40:09;;;;;;;11.55;3.33;;;12.10;92.60;;;;;;6124828;23;20014;-81
2022/01/03 12:42:51;;;;;;;10.90;3.40;;;12.10;92.60;;;;;;6124761;23;20090;-80
2022/01/03 12:45:29;;;;;;;12.30;3.45;;;12.10;92.50;;;;;;6124320;23;19998;-81
2022/01/03 12:48:15;;;;;;;11.60;3.83;;;12.00;92.50;;;;;;6125019;23;20454;-80
2022/01/03 12:50:53;;;;;;;12.93;3.70;;;12.00;92.50;;;;;;6124924;23;20002;-81
2022/01/03 12:53:27;;;;;;;8.82;3.42;;;12.00;92.70;;;;;;6125490;23;20410;-82
2022/01/03 12:56:11;;;;;;;11.55;3.60;;;12.00;92.70;;;;;;6123919;23;20389;-83
2022/01/03 12:58:46;;;;;;;14.50;3.83;;;11.90;92.70;;;;;;6124475;23;20084;-81
2022/01/03 13:01:12;;;;;;;14.15;3.30;;;11.90;92.70;;;;;;6123975;23;20045;-81
2022/01/03 13:03:43;;;;;;;12.52;3.40;;;11.90;92.70;;;;;;6124198;23;20545;-81
2022/01/03 13:06:13;;;;;;;12.57;3.38;;;11.90;92.60;;;;;;6125720;23;20063;-81